Time;durP1;ratioP1;P1;durP2;ratioP2;P2;SDS_P1;SDS_P2;PMS_P1;PMS_P2;Temp;Humidity;BMP_temperature;BMP_pressure;BME280_temperature;BME280_humidity;BME280_pressure;Samples;Min_cycle;Max_cycle;Signal;HPM_P1;HPM_P2
2021/08/04 00:01:51;;;;;;;;;;;14.00;99.90;;;;;;5053379;28;20020;-75
2021/08/04 00:04:23;;;;;;;;;;;14.00;99.90;;;;;;5053734;28;20295;-75
2021/08/04 00:06:54;;;;;;;;;;;14.00;99.90;;;;;;5037663;28;19925;-76
2021/08/04 00:09:26;;;;;;;;;;;14.00;99.90;;;;;;5037592;28;20397;-75
2021/08/04 00:11:52;;;;;;;;;;;14.00;99.90;;;;;;5053219;28;19931;-75
2021/08/04 00:14:24;;;;;;;;;;;14.00;99.90;;;;;;5037553;28;19925;-76
2021/08/04 00:16:56;;;;;;;;;;;14.00;99.90;;;;;;5053340;28;20299;-75
2021/08/04 00:19:22;;;;;;;;;;;14.00;99.90;;;;;;5053498;28;19931;-75
2021/08/04 00:21:54;;;;;;;;;;;14.00;99.90;;;;;;5055042;28;19924;-75
2021/08/04 00:24:26;;;;;;;;;;;14.00;99.90;;;;;;5037755;28;19925;-76
2021/08/04 00:26:57;;;;;;;;;;;14.00;99.90;;;;;;5037494;28;19925;-76
2021/08/04 00:29:24;;;;;;;;;;;14.00;99.90;;;;;;5036637;28;20019;-76
2021/08/04 00:31:51;;;;;;;;;;;13.90;99.90;;;;;;5052840;28;20454;-76
2021/08/04 00:34:17;;;;;;;;;;;14.00;99.90;;;;;;5053165;28;19932;-75
2021/08/04 00:36:49;;;;;;;;;;;13.90;99.90;;;;;;5053005;28;20288;-75
2021/08/04 00:39:21;;;;;;;;;;;13.90;99.90;;;;;;5052996;28;19925;-76
2021/08/04 00:41:47;;;;;;;;;;;13.90;99.90;;;;;;5036260;28;19926;-75
2021/08/04 00:44:14;;;;;;;;;;;13.90;99.90;;;;;;5052909;28;20361;-75
2021/08/04 00:46:42;;;;;;;;;;;13.90;99.90;;;;;;5036478;28;19925;-76
2021/08/04 00:49:10;;;;;;;;;;;13.90;99.90;;;;;;5052905;28;20287;-75
2021/08/04 00:51:38;;;;;;;;;;;13.90;99.90;;;;;;5052456;28;19956;-75
2021/08/04 00:54:09;;;;;;;;;;;13.80;99.90;;;;;;5052803;28;19931;-75
2021/08/04 00:56:41;;;;;;;;;;;13.80;99.90;;;;;;5036903;28;20007;-75
2021/08/04 00:59:13;;;;;;;;;;;13.80;99.90;;;;;;5052666;28;19925;-76
2021/08/04 01:01:42;;;;;;;;;;;13.80;99.90;;;;;;5035235;28;20011;-75
2021/08/04 01:04:17;;;;;;;;;;;13.80;99.90;;;;;;5036371;28;19939;-75
2021/08/04 01:06:44;;;;;;;;;;;13.70;99.90;;;;;;5035468;28;19935;-75
2021/08/04 01:09:11;;;;;;;;;;;13.70;99.90;;;;;;5051749;28;19924;-76
2021/08/04 01:11:46;;;;;;;;;;;13.70;99.90;;;;;;5035580;28;19924;-75
2021/08/04 01:14:20;;;;;;;;;;;13.60;99.90;;;;;;5051640;28;20379;-75
2021/08/04 01:16:52;;;;;;;;;;;13.60;99.90;;;;;;5051557;28;19925;-76
2021/08/04 01:19:24;;;;;;;;;;;13.70;99.90;;;;;;5051644;28;19936;-75
2021/08/04 01:22:00;;;;;;;;;;;13.60;99.90;;;;;;5051273;28;19932;-76
2021/08/04 01:24:28;;;;;;;;;;;13.60;99.90;;;;;;5050921;28;19931;-75
2021/08/04 01:27:00;;;;;;;;;;;13.60;99.90;;;;;;5051101;28;20399;-76
2021/08/04 01:29:32;;;;;;;;;;;13.60;99.90;;;;;;5051638;28;19974;-76
2021/08/04 01:32:04;;;;;;;;;;;13.60;99.90;;;;;;5035835;28;19931;-76
2021/08/04 01:34:36;;;;;;;;;;;13.60;99.90;;;;;;5052012;28;20489;-75
2021/08/04 01:37:08;;;;;;;;;;;13.60;99.90;;;;;;5035648;28;19925;-75
2021/08/04 01:39:41;;;;;;;;;;;13.60;99.90;;;;;;5051542;28;19975;-75
2021/08/04 01:42:11;;;;;;;;;;;13.60;99.90;;;;;;5051168;28;19932;-76
2021/08/04 01:44:39;;;;;;;;;;;13.50;99.90;;;;;;5051162;28;19929;-75
2021/08/04 01:47:11;;;;;;;;;;;13.60;99.90;;;;;;5051147;28;19932;-76
2021/08/04 01:49:45;;;;;;;;;;;13.60;99.90;;;;;;5051250;28;20015;-75
2021/08/04 01:52:17;;;;;;;;;;;13.60;99.90;;;;;;5051075;28;19924;-75
2021/08/04 01:54:45;;;;;;;;;;;13.60;99.90;;;;;;5051437;28;19968;-75
2021/08/04 01:57:11;;;;;;;;;;;13.50;99.90;;;;;;5034932;28;19931;-76
2021/08/04 01:59:44;;;;;;;;;;;13.60;99.90;;;;;;5051375;28;19971;-75
2021/08/04 02:02:20;;;;;;;;;;;13.50;99.90;;;;;;5035526;28;19932;-75
2021/08/04 02:04:53;;;;;;;;;;;13.50;99.90;;;;;;5051206;28;19924;-76
2021/08/04 02:07:36;;;;;;;;;;;13.50;99.90;;;;;;5034867;28;20414;-76
2021/08/04 02:10:06;;;;;;;;;;;13.50;99.90;;;;;;5051442;28;20011;-76
2021/08/04 02:12:39;;;;;;;;;;;13.50;99.90;;;;;;5051024;28;19935;-76
2021/08/04 02:15:13;;;;;;;;;;;13.50;99.90;;;;;;5050897;28;19932;-75
2021/08/04 02:17:46;;;;;;;;;;;13.50;99.90;;;;;;5051084;28;19935;-76
2021/08/04 02:20:26;;;;;;;;;;;13.50;99.90;;;;;;5051039;28;20008;-75
2021/08/04 02:23:12;;;;;;;;;;;13.60;99.90;;;;;;5050953;28;20002;-75
2021/08/04 02:26:00;;;;;;;;;;;13.50;99.90;;;;;;5051026;28;19975;-76
2021/08/04 02:28:32;;;;;;;;;;;13.50;99.90;;;;;;5052353;28;20392;-75
2021/08/04 02:31:00;;;;;;;;;;;13.50;99.90;;;;;;5050218;28;19931;-75
2021/08/04 02:33:32;;;;;;;;;;;13.40;99.90;;;;;;5051021;28;19931;-76
2021/08/04 02:36:00;;;;;;;;;;;13.50;99.90;;;;;;5050609;28;19929;-75
2021/08/04 02:38:29;;;;;;;;;;;13.40;99.90;;;;;;5049962;28;19931;-75
2021/08/04 02:40:56;;;;;;;;;;;13.40;99.90;;;;;;5034206;28;19924;-75
2021/08/04 02:43:26;;;;;;;;;;;13.40;99.90;;;;;;5051047;28;19932;-75
2021/08/04 02:45:58;;;;;;;;;;;13.40;99.90;;;;;;5034892;28;19982;-75
2021/08/04 02:48:30;;;;;;;;;;;13.30;99.90;;;;;;5034988;28;19963;-74
2021/08/04 02:51:09;;;;;;;;;;;13.30;99.90;;;;;;5050328;28;19972;-75
2021/08/04 02:53:41;;;;;;;;;;;13.40;99.90;;;;;;5035010;28;20402;-75
2021/08/04 02:56:08;;;;;;;;;;;13.40;99.90;;;;;;5050487;28;20402;-75
2021/08/04 02:58:39;;;;;;;;;;;13.40;99.90;;;;;;5034498;28;19936;-74
2021/08/04 03:01:12;;;;;;;;;;;13.40;99.90;;;;;;5050155;28;19940;-74
2021/08/04 03:03:46;;;;;;;;;;;13.40;99.90;;;;;;5050800;28;19965;-75
2021/08/04 03:06:20;;;;;;;;;;;13.30;99.90;;;;;;5050727;28;19924;-74
2021/08/04 03:08:47;;;;;;;;;;;13.40;99.90;;;;;;5050890;28;19960;-76
2021/08/04 03:11:14;;;;;;;;;;;13.40;99.90;;;;;;5050540;28;19932;-75
2021/08/04 03:13:40;;;;;;;;;;;13.30;99.90;;;;;;5033811;28;20031;-75
2021/08/04 03:16:13;;;;;;;;;;;13.30;99.90;;;;;;5051853;28;19925;-75
2021/08/04 03:18:46;;;;;;;;;;;13.30;99.90;;;;;;5050525;28;19924;-74
2021/08/04 03:21:13;;;;;;;;;;;13.30;99.90;;;;;;5051469;28;19956;-74
2021/08/04 03:23:39;;;;;;;;;;;13.20;99.90;;;;;;5050678;28;20377;-74
2021/08/04 03:26:11;;;;;;;;;;;13.20;99.90;;;;;;5050422;28;19931;-75
2021/08/04 03:28:39;;;;;;;;;;;13.20;99.90;;;;;;5050368;28;19932;-74
2021/08/04 03:31:10;;;;;;;;;;;13.20;99.90;;;;;;5050147;28;20381;-75
2021/08/04 03:33:39;;;;;;;;;;;13.20;99.90;;;;;;5033966;28;19924;-74
2021/08/04 03:36:05;;;;;;;;;;;13.30;99.90;;;;;;5050378;28;19928;-75
2021/08/04 03:38:34;;;;;;;;;;;13.30;99.90;;;;;;5033245;28;20023;-74
2021/08/04 03:41:07;;;;;;;;;;;13.30;99.90;;;;;;5050772;28;19924;-75
2021/08/04 03:43:34;;;;;;;;;;;13.20;99.90;;;;;;5049600;28;20023;-75
2021/08/04 03:46:01;;;;;;;;;;;13.20;99.90;;;;;;5049814;28;19924;-75
2021/08/04 03:48:30;;;;;;;;;;;13.20;99.90;;;;;;5051183;28;19925;-74
2021/08/04 03:50:58;;;;;;;;;;;13.20;99.90;;;;;;5052657;28;19929;-74
2021/08/04 03:53:31;;;;;;;;;;;13.20;99.90;;;;;;5053158;28;19924;-75
2021/08/04 03:56:03;;;;;;;;;;;13.30;99.90;;;;;;5052822;28;19925;-79
2021/08/04 03:58:30;;;;;;;;;;;13.30;99.90;;;;;;5036370;28;20421;-74
2021/08/04 04:01:02;;;;;;;;;;;13.40;99.90;;;;;;5052951;28;19925;-75
2021/08/04 04:03:29;;;;;;;;;;;13.50;99.90;;;;;;5052953;28;20016;-75
2021/08/04 04:06:03;;;;;;;;;;;13.40;99.90;;;;;;5037429;28;19925;-75
2021/08/04 04:08:29;;;;;;;;;;;13.40;99.90;;;;;;5053129;28;19946;-75
2021/08/04 04:10:56;;;;;;;;;;;13.30;99.90;;;;;;5036173;28;19935;-75
2021/08/04 04:13:23;;;;;;;;;;;13.30;99.90;;;;;;5053843;28;20455;-75
2021/08/04 04:15:54;;;;;;;;;;;13.30;99.90;;;;;;5052897;28;20299;-75
2021/08/04 04:18:21;;;;;;;;;;;13.30;99.90;;;;;;5052878;28;20023;-74
2021/08/04 04:20:50;;;;;;;;;;;13.30;99.90;;;;;;5052990;28;19931;-75
2021/08/04 04:23:17;;;;;;;;;;;13.30;99.90;;;;;;5052637;28;20031;-75
2021/08/04 04:25:44;;;;;;;;;;;13.30;99.90;;;;;;5052603;28;19960;-75
2021/08/04 04:28:11;;;;;;;;;;;13.30;99.90;;;;;;5036056;28;19986;-74
2021/08/04 04:30:38;;;;;;;;;;;13.30;99.90;;;;;;5052351;28;19956;-75
2021/08/04 04:33:04;;;;;;;;;;;13.30;99.90;;;;;;5052364;28;20032;-75
2021/08/04 04:35:36;;;;;;;;;;;13.30;99.90;;;;;;5052979;28;20015;-75
2021/08/04 04:38:08;;;;;;;;;;;13.40;99.90;;;;;;5053142;28;19925;-75
2021/08/04 04:40:35;;;;;;;;;;;13.40;99.90;;;;;;5053270;28;19963;-75
2021/08/04 04:43:02;;;;;;;;;;;13.40;99.90;;;;;;5053471;28;20019;-75
2021/08/04 04:45:29;;;;;;;;;;;13.30;99.90;;;;;;5052805;28;19967;-75
2021/08/04 04:47:58;;;;;;;;;;;13.30;99.90;;;;;;5036639;28;20375;-74
2021/08/04 04:50:25;;;;;;;;;;;13.30;99.90;;;;;;5052941;28;20361;-75
2021/08/04 04:52:52;;;;;;;;;;;13.30;99.90;;;;;;5052318;28;19956;-75
2021/08/04 04:55:18;;;;;;;;;;;13.30;99.90;;;;;;5052800;28;19963;-75
2021/08/04 04:57:46;;;;;;;;;;;13.30;99.90;;;;;;5052876;28;19963;-75
2021/08/04 05:00:15;;;;;;;;;;;13.30;99.90;;;;;;5035735;28;20280;-75
2021/08/04 05:02:48;;;;;;;;;;;13.30;99.90;;;;;;5052088;28;19929;-75
2021/08/04 05:05:15;;;;;;;;;;;13.30;99.90;;;;;;5052528;28;19931;-75
2021/08/04 05:07:46;;;;;;;;;;;13.30;99.90;;;;;;5036946;28;19960;-76
2021/08/04 05:10:18;;;;;;;;;;;13.30;99.90;;;;;;5052460;28;19931;-76
2021/08/04 05:12:50;;;;;;;;;;;13.40;99.90;;;;;;5052207;28;19973;-76
2021/08/04 05:15:18;;;;;;;;;;;13.50;99.90;;;;;;5053672;28;19925;-75
2021/08/04 05:17:44;;;;;;;;;;;13.50;99.90;;;;;;5052368;28;20031;-75
2021/08/04 05:20:14;;;;;;;;;;;13.60;99.90;;;;;;5052172;28;19925;-75
2021/08/04 05:22:40;;;;;;;;;;;13.60;99.90;;;;;;5052098;28;19925;-75
2021/08/04 05:25:07;;;;;;;;;;;13.60;99.90;;;;;;5052044;28;20358;-75
2021/08/04 05:27:39;;;;;;;;;;;13.70;99.90;;;;;;5052260;28;19925;-75
2021/08/04 05:30:12;;;;;;;;;;;13.70;99.90;;;;;;5052039;28;19929;-75
2021/08/04 05:32:39;;;;;;;;;;;13.70;99.90;;;;;;5035243;28;20015;-75
2021/08/04 05:35:06;;;;;;;;;;;13.70;99.90;;;;;;5051907;28;20062;-75
2021/08/04 05:37:33;;;;;;;;;;;13.70;99.90;;;;;;5052096;28;20429;-75
2021/08/04 05:40:05;;;;;;;;;;;13.70;99.90;;;;;;5051911;28;19925;-75
2021/08/04 05:42:32;;;;;;;;;;;13.80;99.90;;;;;;5051515;28;20458;-75
2021/08/04 05:45:00;;;;;;;;;;;13.80;99.90;;;;;;5035487;28;20028;-75
2021/08/04 05:47:32;;;;;;;;;;;13.80;99.90;;;;;;5051941;28;19979;-76
2021/08/04 05:50:06;;;;;;;;;;;13.90;99.90;;;;;;5035885;28;20012;-75
2021/08/04 05:52:32;;;;;;;;;;;13.90;99.90;;;;;;5051295;28;20007;-75
2021/08/04 05:54:59;;;;;;;;;;;13.90;99.90;;;;;;5051465;28;19925;-75
2021/08/04 05:57:26;;;;;;;;;;;13.90;99.90;;;;;;5051526;28;20020;-76
2021/08/04 05:59:58;;;;;;;;;;;14.00;99.90;;;;;;5051469;28;19925;-75
2021/08/04 06:02:33;;;;;;;;;;;14.10;99.90;;;;;;5051301;28;20327;-75
2021/08/04 06:05:00;;;;;;;;;;;14.10;99.90;;;;;;5051351;28;20223;-75
2021/08/04 06:07:32;;;;;;;;;;;14.20;99.90;;;;;;5051308;28;19975;-75
2021/08/04 06:09:58;;;;;;;;;;;14.30;99.90;;;;;;5051936;28;19954;-75
2021/08/04 06:12:30;;;;;;;;;;;14.30;99.90;;;;;;5052529;28;20282;-75
2021/08/04 06:14:57;;;;;;;;;;;14.30;99.90;;;;;;5060136;28;19925;-75
2021/08/04 06:17:24;;;;;;;;;;;14.40;99.90;;;;;;5057539;28;19931;-76
2021/08/04 06:19:57;;;;;;;;;;;14.40;99.90;;;;;;5055401;28;20384;-76
2021/08/04 06:22:28;;;;;;;;;;;14.40;99.90;;;;;;5059671;28;20021;-75
2021/08/04 06:25:01;;;;;;;;;;;14.50;99.90;;;;;;5056536;28;19955;-76
2021/08/04 06:27:28;;;;;;;;;;;14.50;99.90;;;;;;5067343;28;19931;-75
2021/08/04 06:30:00;;;;;;;;;;;14.60;99.90;;;;;;5052156;28;20379;-75
2021/08/04 06:32:32;;;;;;;;;;;14.60;99.90;;;;;;5058553;28;20343;-75
2021/08/04 06:34:59;;;;;;;;;;;14.70;99.90;;;;;;5060421;28;20417;-75
2021/08/04 06:37:31;;;;;;;;;;;14.70;99.90;;;;;;5064224;28;20019;-75
2021/08/04 06:40:03;;;;;;;;;;;14.80;99.90;;;;;;5053564;28;19979;-76
2021/08/04 06:42:30;;;;;;;;;;;14.70;99.90;;;;;;5064862;28;19925;-76
2021/08/04 06:44:56;;;;;;;;;;;14.70;99.90;;;;;;5058231;28;19924;-75
2021/08/04 06:47:23;;;;;;;;;;;14.70;99.90;;;;;;5059656;28;20011;-75
2021/08/04 06:49:50;;;;;;;;;;;14.80;99.90;;;;;;5061481;28;19931;-74
2021/08/04 06:52:22;;;;;;;;;;;14.90;99.90;;;;;;5070488;28;19935;-73
2021/08/04 06:54:48;;;;;;;;;;;14.90;99.90;;;;;;5069953;28;19928;-74
2021/08/04 06:57:20;;;;;;;;;;;15.00;99.90;;;;;;5069907;28;20007;-73
2021/08/04 06:59:52;;;;;;;;;;;15.00;99.90;;;;;;5070335;28;20306;-74
2021/08/04 07:02:27;;;;;;;;;;;15.10;99.90;;;;;;5070934;28;19924;-73
2021/08/04 07:04:55;;;;;;;;;;;15.10;99.90;;;;;;5068913;28;19928;-74
2021/08/04 07:07:23;;;;;;;;;;;15.20;99.90;;;;;;5052450;28;19931;-74
2021/08/04 07:09:49;;;;;;;;;;;15.10;99.90;;;;;;5050789;28;20011;-73
2021/08/04 07:12:17;;;;;;;;;;;15.20;99.90;;;;;;5056822;28;19954;-73
2021/08/04 07:14:51;;;;;;;;;;;15.20;99.90;;;;;;5069913;28;20014;-74
2021/08/04 07:17:18;;;;;;;;;;;15.30;99.90;;;;;;5048584;28;19964;-74
2021/08/04 07:19:44;;;;;;;;;;;15.30;99.90;;;;;;5049554;28;20426;-74
2021/08/04 07:22:16;;;;;;;;;;;15.40;99.90;;;;;;5049184;28;20032;-74
2021/08/04 07:24:43;;;;;;;;;;;15.50;99.90;;;;;;5051690;28;19931;-73
2021/08/04 07:27:14;;;;;;;;;;;15.50;99.90;;;;;;5073570;28;19925;-74
2021/08/04 07:29:47;;;;;;;;;;;15.50;99.90;;;;;;5061687;28;19925;-74
2021/08/04 07:32:19;;;;;;;;;;;15.60;99.90;;;;;;5056061;28;19925;-74
2021/08/04 07:34:51;;;;;;;;;;;15.60;99.90;;;;;;5055077;28;20015;-74
2021/08/04 07:37:18;;;;;;;;;;;15.70;99.90;;;;;;5070381;28;19935;-74
2021/08/04 07:39:50;;;;;;;;;;;15.70;99.90;;;;;;5068081;28;19931;-74
2021/08/04 07:42:22;;;;;;;;;;;15.70;99.90;;;;;;5059034;28;19951;-74
2021/08/04 07:44:55;;;;;;;;;;;15.80;99.90;;;;;;5052653;28;19925;-73
2021/08/04 07:47:27;;;;;;;;;;;15.80;99.90;;;;;;5052490;28;20284;-73
2021/08/04 07:49:58;;;;;;;;;;;15.90;99.90;;;;;;5036881;28;19968;-74
2021/08/04 07:52:26;;;;;;;;;;;15.90;99.90;;;;;;5052484;28;19931;-73
2021/08/04 07:54:53;;;;;;;;;;;15.90;99.90;;;;;;5052364;28;19952;-73
2021/08/04 07:57:21;;;;;;;;;;;16.10;99.90;;;;;;5053080;28;19928;-74
2021/08/04 07:59:47;;;;;;;;;;;16.20;99.90;;;;;;5054380;28;19929;-74
2021/08/04 08:02:19;;;;;;;;;;;16.20;99.90;;;;;;5052684;28;19951;-73
2021/08/04 08:04:51;;;;;;;;;;;16.20;99.90;;;;;;5053101;28;19928;-74
2021/08/04 08:07:17;;;;;;;;;;;16.20;99.90;;;;;;5052700;28;19935;-74
2021/08/04 08:09:49;;;;;;;;;;;16.20;99.90;;;;;;5037095;28;19924;-74
2021/08/04 08:12:15;;;;;;;;;;;16.40;99.90;;;;;;5052694;28;19924;-74
2021/08/04 08:14:42;;;;;;;;;;;16.40;99.90;;;;;;5036086;28;20299;-73
2021/08/04 08:17:09;;;;;;;;;;;16.40;99.90;;;;;;5052921;28;19928;-73
2021/08/04 08:19:35;;;;;;;;;;;16.50;99.90;;;;;;5052847;28;19925;-74
2021/08/04 08:22:02;;;;;;;;;;;16.60;99.90;;;;;;5052341;28;19929;-73
2021/08/04 08:24:29;;;;;;;;;;;16.60;99.90;;;;;;5052949;28;20004;-73
2021/08/04 08:26:55;;;;;;;;;;;16.70;99.90;;;;;;5054036;28;19929;-74
2021/08/04 08:29:27;;;;;;;;;;;16.80;99.90;;;;;;5036668;28;19939;-74
2021/08/04 08:31:59;;;;;;;;;;;16.90;99.90;;;;;;5053492;28;20316;-74
2021/08/04 08:34:25;;;;;;;;;;;16.90;99.90;;;;;;5053692;28;20413;-74
2021/08/04 08:36:52;;;;;;;;;;;17.00;99.90;;;;;;5034634;28;19956;-73
2021/08/04 08:39:18;;;;;;;;;;;17.00;99.90;;;;;;5052324;28;20294;-74
2021/08/04 08:41:50;;;;;;;;;;;17.10;99.90;;;;;;5052230;28;20379;-74
2021/08/04 08:44:22;;;;;;;;;;;17.30;99.90;;;;;;5052506;28;19925;-74
2021/08/04 08:46:54;;;;;;;;;;;17.40;99.90;;;;;;5052165;28;20383;-74
2021/08/04 08:49:27;;;;;;;;;;;17.30;99.90;;;;;;5053661;28;19929;-74
2021/08/04 08:51:59;;;;;;;;;;;17.30;99.90;;;;;;5055004;28;19925;-72
2021/08/04 08:54:26;;;;;;;;;;;17.40;99.90;;;;;;5065562;28;19925;-74
2021/08/04 08:56:58;;;;;;;;;;;17.50;99.90;;;;;;5063824;28;19929;-74
2021/08/04 08:59:24;;;;;;;;;;;17.60;99.90;;;;;;5069057;28;19924;-74
2021/08/04 09:01:51;;;;;;;;;;;17.60;99.90;;;;;;5071251;28;19928;-74
2021/08/04 09:04:18;;;;;;;;;;;17.50;99.90;;;;;;5071750;28;20022;-73
2021/08/04 09:06:57;;;;;;;;;;;17.40;99.90;;;;;;5071697;28;19931;-73
2021/08/04 09:09:32;;;;;;;;;;;17.40;99.90;;;;;;5055914;28;19928;-73
2021/08/04 09:12:09;;;;;;;;;;;17.50;99.90;;;;;;5071149;28;20434;-73
2021/08/04 09:14:37;;;;;;;;;;;17.50;99.90;;;;;;5072019;28;19924;-73
2021/08/04 09:17:11;;;;;;;;;;;17.60;99.90;;;;;;5055165;28;19931;-73
2021/08/04 09:19:44;;;;;;;;;;;17.60;99.90;;;;;;5054840;28;19925;-73
2021/08/04 09:22:19;;;;;;;;;;;17.70;99.90;;;;;;5053613;28;19932;-73
2021/08/04 09:24:55;;;;;;;;;;;17.70;99.90;;;;;;5052367;28;20406;-73
2021/08/04 09:27:41;;;;;;;;;;;17.80;99.90;;;;;;5056990;28;19928;-73
2021/08/04 09:30:14;;;;;;;;;;;17.90;99.90;;;;;;5071295;28;19925;-73
2021/08/04 09:32:47;;;;;;;;;;;18.00;99.90;;;;;;5038818;28;19928;-73
2021/08/04 09:35:18;;;;;;;;;;;18.00;99.90;;;;;;5062888;28;19924;-73
2021/08/04 09:38:04;;;;;;;;;;;18.10;99.90;;;;;;5064301;28;19974;-72
2021/08/04 09:40:36;;;;;;;;;;;18.20;99.90;;;;;;5056334;28;20054;-73
2021/08/04 09:43:10;;;;;;;;;;;18.20;99.90;;;;;;5063025;28;19928;-74
2021/08/04 09:45:47;;;;;;;;;;;18.30;99.90;;;;;;5062685;28;20014;-73
2021/08/04 09:48:23;;;;;;;;;;;18.40;99.90;;;;;;5054785;28;19925;-73
2021/08/04 09:50:56;;;;;;;;;;;18.50;99.90;;;;;;5065104;28;19931;-73
2021/08/04 09:53:27;;;;;;;;;;;18.60;99.90;;;;;;5045429;28;20020;-72
2021/08/04 09:56:03;;;;;;;;;;;18.70;99.90;;;;;;5061108;28;19943;-73
2021/08/04 09:58:30;;;;;;;;;;;18.90;99.90;;;;;;5067075;28;19924;-73
2021/08/04 10:01:02;;;;;;;;;;;19.00;99.90;;;;;;5039575;28;19924;-73
2021/08/04 10:03:33;;;;;;;;;;;19.00;99.90;;;;;;5057374;28;19936;-73
2021/08/04 10:06:00;;;;;;;;;;;19.10;99.90;;;;;;5064882;28;19975;-73
2021/08/04 10:08:30;;;;;;;;;;;19.30;99.90;;;;;;5051250;28;19925;-73
2021/08/04 10:11:02;;;;;;;;;;;19.40;99.90;;;;;;5058561;28;19946;-73
2021/08/04 10:13:35;;;;;;;;;;;19.50;99.90;;;;;;5066282;28;20526;-73
2021/08/04 10:16:06;;;;;;;;;;;19.50;99.90;;;;;;5055477;28;19924;-73
2021/08/04 10:18:40;;;;;;;;;;;19.60;99.90;;;;;;5061867;28;19931;-73
2021/08/04 10:21:12;;;;;;;;;;;19.60;99.90;;;;;;5063735;28;19928;-73
2021/08/04 10:23:48;;;;;;;;;;;19.50;99.90;;;;;;5064755;28;19931;-73
2021/08/04 10:26:15;;;;;;;;;;;19.60;99.90;;;;;;5069853;28;19924;-73
2021/08/04 10:28:52;;;;;;;;;;;19.60;99.90;;;;;;5060231;28;19936;-73
2021/08/04 10:31:20;;;;;;;;;;;19.60;99.90;;;;;;5047253;28;20816;-73
2021/08/04 10:33:47;;;;;;;;;;;19.50;99.90;;;;;;5053261;28;20031;-73
2021/08/04 10:36:15;;;;;;;;;;;19.40;99.90;;;;;;5066400;28;19928;-73
2021/08/04 10:38:45;;;;;;;;;;;19.50;99.90;;;;;;5059230;28;20043;-73
2021/08/04 10:41:18;;;;;;;;;;;19.40;99.90;;;;;;5040489;28;19925;-73
2021/08/04 10:43:52;;;;;;;;;;;19.30;99.90;;;;;;5064108;28;19931;-72
2021/08/04 10:46:26;;;;;;;;;;;19.30;99.90;;;;;;5064021;28;20409;-73
2021/08/04 10:49:04;;;;;;;;;;;19.40;99.90;;;;;;5059461;28;20310;-73
2021/08/04 10:51:41;;;;;;;;;;;19.60;99.90;;;;;;5050700;28;19938;-72
2021/08/04 10:54:17;;;;;;;;;;;19.70;99.90;;;;;;5054154;28;19924;-73
2021/08/04 10:56:44;;;;;;;;;;;19.80;99.90;;;;;;5066733;28;20007;-73
2021/08/04 10:59:26;;;;;;;;;;;19.80;99.90;;;;;;5054255;28;20398;-74
2021/08/04 11:01:53;;;;;;;;;;;19.90;99.90;;;;;;5062269;28;20387;-73
2021/08/04 11:04:26;;;;;;;;;;;20.00;99.90;;;;;;5063149;28;19931;-73
2021/08/04 11:07:07;;;;;;;;;;;20.10;99.90;;;;;;5065920;28;20579;-73
2021/08/04 11:09:33;;;;;;;;;;;20.10;99.90;;;;;;5070404;28;19931;-73
2021/08/04 11:12:03;;;;;;;;;;;20.10;99.90;;;;;;5050570;28;19925;-72
2021/08/04 11:14:38;;;;;;;;;;;20.10;99.90;;;;;;5051345;28;19924;-73
2021/08/04 11:17:07;;;;;;;;;;;20.10;99.90;;;;;;5051281;28;19928;-73
2021/08/04 11:20:05;;;;;;;;;;;20.10;99.90;;;;;;5052497;28;19932;-73
2021/08/04 11:22:35;;;;;;;;;;;20.00;99.90;;;;;;5033590;28;20011;-73
2021/08/04 11:25:10;;;;;;;;;;;20.00;99.90;;;;;;5051228;28;19925;-73
2021/08/04 11:27:45;;;;;;;;;;;20.00;99.90;;;;;;5050322;28;19928;-73
2021/08/04 11:30:14;;;;;;;;;;;20.00;99.90;;;;;;5050576;28;20031;-73
2021/08/04 11:32:42;;;;;;;;;;;19.80;99.90;;;;;;5050163;28;20019;-73
2021/08/04 11:35:18;;;;;;;;;;;19.70;99.90;;;;;;5050718;28;19925;-73
2021/08/04 11:37:49;;;;;;;;;;;19.80;99.90;;;;;;5066683;28;19935;-73
2021/08/04 11:40:16;;;;;;;;;;;19.80;99.90;;;;;;5050713;28;19925;-73
2021/08/04 11:42:42;;;;;;;;;;;19.90;99.90;;;;;;5050242;28;20024;-73
2021/08/04 11:45:10;;;;;;;;;;;20.00;99.90;;;;;;5050526;28;20365;-73
2021/08/04 11:47:37;;;;;;;;;;;20.00;99.90;;;;;;5050378;28;19925;-74
2021/08/04 11:50:09;;;;;;;;;;;20.10;99.90;;;;;;5050453;28;20380;-73
2021/08/04 11:52:36;;;;;;;;;;;20.20;99.90;;;;;;5051415;28;19925;-73
2021/08/04 11:55:10;;;;;;;;;;;20.20;99.90;;;;;;5050457;28;19925;-73
2021/08/04 11:57:42;;;;;;;;;;;20.10;99.90;;;;;;5066830;28;19925;-73
2021/08/04 12:00:17;;;;;;;;;;;20.10;99.90;;;;;;5066597;28;20303;-73
2021/08/04 12:02:49;;;;;;;;;;;20.20;99.90;;;;;;5033971;28;19929;-73
2021/08/04 12:05:17;;;;;;;;;;;20.20;99.90;;;;;;5033586;28;19925;-73
2021/08/04 12:07:49;;;;;;;;;;;20.30;99.90;;;;;;5051575;28;19932;-73
2021/08/04 12:10:23;;;;;;;;;;;20.30;99.90;;;;;;5051460;28;19982;-73
2021/08/04 12:12:50;;;;;;;;;;;20.30;99.90;;;;;;5055091;28;20398;-73
2021/08/04 12:15:24;;;;;;;;;;;20.20;99.90;;;;;;5042715;28;19929;-74
2021/08/04 12:17:56;;;;;;;;;;;20.20;99.90;;;;;;5073019;28;19924;-73
2021/08/04 12:20:31;;;;;;;;;;;20.20;99.90;;;;;;5056384;28;19944;-73
2021/08/04 12:23:10;;;;;;;;;;;20.20;99.90;;;;;;5053615;28;20411;-73
2021/08/04 12:25:38;;;;;;;;;;;20.30;99.90;;;;;;5061321;28;20031;-73
2021/08/04 12:28:05;;;;;;;;;;;20.30;99.90;;;;;;5059943;28;20382;-73
2021/08/04 12:30:38;;;;;;;;;;;20.30;99.90;;;;;;5035621;28;19925;-73
2021/08/04 12:33:13;;;;;;;;;;;20.40;99.90;;;;;;5056568;28;20486;-73
2021/08/04 12:36:03;;;;;;;;;;;20.40;99.90;;;;;;5073548;28;20023;-73
2021/08/04 12:38:35;;;;;;;;;;;20.40;99.90;;;;;;5072501;28;19928;-73
2021/08/04 12:41:11;;;;;;;;;;;20.40;99.90;;;;;;5041065;28;20379;-73
2021/08/04 12:43:43;;;;;;;;;;;20.30;99.90;;;;;;5056385;28;19925;-73
2021/08/04 12:46:15;;;;;;;;;;;20.30;99.90;;;;;;5058431;28;20314;-73
2021/08/04 12:48:51;;;;;;;;;;;20.30;99.90;;;;;;5069228;28;19928;-73
2021/08/04 12:51:23;;;;;;;;;;;20.20;99.90;;;;;;5069582;28;19924;-73
2021/08/04 12:53:59;;;;;;;;;;;20.20;99.90;;;;;;5059110;28;19924;-73
2021/08/04 12:56:32;;;;;;;;;;;20.30;99.90;;;;;;5051979;28;20405;-73
2021/08/04 12:58:59;;;;;;;;;;;20.40;99.90;;;;;;5051857;28;19925;-73
2021/08/04 13:01:33;;;;;;;;;;;20.40;99.90;;;;;;5061753;28;19924;-73
2021/08/04 13:04:14;;;;;;;;;;;20.40;99.90;;;;;;5053269;28;19925;-73
2021/08/04 13:06:52;;;;;;;;;;;20.40;99.90;;;;;;5051710;28;19948;-73
2021/08/04 13:09:25;;;;;;;;;;;20.50;99.90;;;;;;5051830;28;19925;-73
2021/08/04 13:12:18;;;;;;;;;;;20.40;99.90;;;;;;5055271;28;20021;-73
2021/08/04 13:15:00;;;;;;;;;;;20.20;99.90;;;;;;5061013;28;19929;-73
2021/08/04 13:17:28;;;;;;;;;;;20.10;99.90;;;;;;5068027;28;19928;-73
2021/08/04 13:20:18;;;;;;;;;;;20.10;99.90;;;;;;5070843;28;20003;-73
2021/08/04 13:22:49;;;;;;;;;;;20.10;99.90;;;;;;5059671;28;19928;-73
2021/08/04 13:25:16;;;;;;;;;;;20.20;99.90;;;;;;5072338;28;19978;-74
2021/08/04 13:27:59;;;;;;;;;;;20.20;99.90;;;;;;5063682;28;19924;-73
2021/08/04 13:30:31;;;;;;;;;;;20.10;99.90;;;;;;5091398;28;19975;-73
2021/08/04 13:33:03;;;;;;;;;;;20.00;99.90;;;;;;5091111;28;19924;-73
2021/08/04 13:35:36;;;;;;;;;;;20.10;99.90;;;;;;5075268;28;19931;-74
2021/08/04 13:38:08;;;;;;;;;;;20.00;99.90;;;;;;5079939;28;20023;-73
2021/08/04 13:40:40;;;;;;;;;;;20.00;99.90;;;;;;5070831;28;19936;-74
2021/08/04 13:43:07;;;;;;;;;;;20.00;99.90;;;;;;5072090;28;19943;-73
2021/08/04 13:45:39;;;;;;;;;;;20.00;99.90;;;;;;5070671;28;20379;-73
2021/08/04 13:48:10;;;;;;;;;;;19.90;99.90;;;;;;5071028;28;20195;-74
2021/08/04 13:50:42;;;;;;;;;;;20.00;99.90;;;;;;5070860;28;19925;-74
2021/08/04 13:53:16;;;;;;;;;;;20.10;99.90;;;;;;5070687;28;20163;-74
2021/08/04 13:55:48;;;;;;;;;;;20.10;99.90;;;;;;5055548;28;19924;-73
2021/08/04 13:58:18;;;;;;;;;;;20.10;99.90;;;;;;5071445;28;20410;-73
2021/08/04 14:00:51;;;;;;;;;;;20.20;99.90;;;;;;5071012;28;19925;-73
2021/08/04 14:03:23;;;;;;;;;;;20.30;99.90;;;;;;5071695;28;19925;-72
2021/08/04 14:05:50;;;;;;;;;;;20.40;99.90;;;;;;5071480;28;19982;-74
2021/08/04 14:08:22;;;;;;;;;;;20.50;99.90;;;;;;5070733;28;19924;-73
2021/08/04 14:10:53;;;;;;;;;;;20.60;99.90;;;;;;5070447;28;19953;-73
2021/08/04 14:13:25;;;;;;;;;;;20.50;99.90;;;;;;5054519;28;19925;-73
2021/08/04 14:15:59;;;;;;;;;;;20.40;99.90;;;;;;5071511;28;20394;-73
2021/08/04 14:18:30;;;;;;;;;;;20.30;99.90;;;;;;5070582;28;19933;-72
2021/08/04 14:21:02;;;;;;;;;;;20.20;99.90;;;;;;5068837;28;19924;-74
2021/08/04 14:23:34;;;;;;;;;;;20.10;99.90;;;;;;5068873;28;20401;-72
2021/08/04 14:26:06;;;;;;;;;;;20.10;99.90;;;;;;5066982;28;19931;-73
2021/08/04 14:28:33;;;;;;;;;;;19.80;99.90;;;;;;5070124;28;20011;-73
2021/08/04 14:30:59;;;;;;;;;;;19.80;99.90;;;;;;5051655;28;20062;-73
2021/08/04 14:33:31;;;;;;;;;;;19.70;99.90;;;;;;5053806;28;19939;-73
2021/08/04 14:36:03;;;;;;;;;;;19.60;99.90;;;;;;5063861;28;19930;-73
2021/08/04 14:38:35;;;;;;;;;;;19.50;99.90;;;;;;5069587;28;19924;-73